Sant Just Desvern, Spain
Current Conditions -  °F | °C
As of 10:00 AM on Friday 31 Oct 2014 (Local Time) from LEBL Reporting Station
Haze Haze  
Wind Chill: 18°   Ceiling: Unl
Heat Index: 18°   Visibility: 3mi
Dew Point: 15°   Wind: 7mph
Humidity: 83%   Direction: 330°NNW
Pressure: 30.27"   Gusts: NA
Location:  41.39°N, 2.08°E
Report Text: LEBL 310900Z 33006KT 280V010 5000 BR FEW024 SCT033 18/15 Q1025 NOSIG
Loading
Personal Weather Stations






























Interactive Weather Map
Tropical Storm Tracking
New forecast layout! Learn more

10-Day Weather Forecast

Advertisements
Track Severe Weather on mobile